createdAt,value
2023-05-02T00:00:10.998Z,12.32
2023-05-02T00:01:10.991Z,12.25
2023-05-02T00:02:11.035Z,12.29
2023-05-02T00:03:11.113Z,12.28
2023-05-02T00:04:11.053Z,12.25
2023-05-02T00:05:10.986Z,12.24
2023-05-02T00:06:11.004Z,12.12
2023-05-02T00:07:10.943Z,12.15
2023-05-02T00:08:11.056Z,12.10
2023-05-02T00:09:10.943Z,12.09
2023-05-02T00:10:10.926Z,12.03
2023-05-02T00:11:10.916Z,11.97
2023-05-02T00:12:10.934Z,11.99
2023-05-02T00:13:10.907Z,11.97
2023-05-02T00:14:10.926Z,11.90
2023-05-02T00:15:10.891Z,11.86
2023-05-02T00:16:10.921Z,11.78
2023-05-02T00:17:11.090Z,11.78
2023-05-02T00:18:10.965Z,11.75
2023-05-02T00:19:10.882Z,11.77
2023-05-02T00:20:10.858Z,11.78
2023-05-02T00:21:10.854Z,11.75
2023-05-02T00:22:10.850Z,11.66
2023-05-02T00:23:10.840Z,11.57
2023-05-02T00:24:10.833Z,11.63
2023-05-02T00:25:10.833Z,11.65
2023-05-02T00:26:10.833Z,11.65
2023-05-02T00:27:10.826Z,11.55
2023-05-02T00:28:10.807Z,11.65
2023-05-02T00:29:10.823Z,11.63
2023-05-02T00:30:10.835Z,11.54
2023-05-02T00:31:10.863Z,11.57
2023-05-02T00:32:10.776Z,11.44
2023-05-02T00:33:10.851Z,11.45
2023-05-02T00:34:10.850Z,11.44
2023-05-02T00:35:10.758Z,11.43
2023-05-02T00:36:10.776Z,11.41
2023-05-02T00:37:10.790Z,11.41
2023-05-02T00:38:10.741Z,11.37
2023-05-02T00:39:10.728Z,11.35
2023-05-02T00:40:10.727Z,11.40
2023-05-02T00:41:10.719Z,11.40
2023-05-02T00:42:10.713Z,11.36
2023-05-02T00:43:10.734Z,11.26
2023-05-02T00:44:10.710Z,11.30
2023-05-02T00:45:10.693Z,11.32
2023-05-02T00:46:10.767Z,11.35
2023-05-02T00:47:10.687Z,11.33
2023-05-02T00:48:10.733Z,11.30
2023-05-02T00:49:10.664Z,11.30
2023-05-02T00:50:10.686Z,11.25
2023-05-02T00:51:10.651Z,11.26
2023-05-02T00:52:10.759Z,11.25
2023-05-02T00:53:10.653Z,11.17
2023-05-02T00:54:10.628Z,11.15
2023-05-02T00:55:10.628Z,11.15
2023-05-02T00:56:10.641Z,11.12
2023-05-02T00:57:10.615Z,11.17
2023-05-02T00:58:10.601Z,11.11
2023-05-02T00:59:10.595Z,11.10
2023-05-02T01:00:10.595Z,11.11
2023-05-02T01:01:10.687Z,11.23
2023-05-02T01:02:10.614Z,11.25
2023-05-02T01:03:10.640Z,11.29
2023-05-02T01:04:10.744Z,11.33
2023-05-02T01:05:10.562Z,11.33
2023-05-02T01:06:10.637Z,11.25
2023-05-02T01:07:10.529Z,11.30
2023-05-02T01:08:10.545Z,11.29
2023-05-02T01:09:10.536Z,11.37
2023-05-02T01:10:10.530Z,11.48
2023-05-02T01:11:10.526Z,11.40
2023-05-02T01:12:10.500Z,11.40
2023-05-02T01:13:10.498Z,11.48
2023-05-02T01:14:10.489Z,11.48
2023-05-02T01:15:10.482Z,11.51
2023-05-02T01:16:10.500Z,11.57
2023-05-02T01:17:10.461Z,11.66
2023-05-02T01:18:10.593Z,11.54
2023-05-02T01:19:10.452Z,11.68
2023-05-02T01:20:10.450Z,11.65
2023-05-02T01:21:10.440Z,11.78
2023-05-02T01:22:10.428Z,11.75
2023-05-02T01:23:10.421Z,11.81
2023-05-02T01:24:10.447Z,11.75
2023-05-02T01:25:10.409Z,11.77
2023-05-02T01:26:10.418Z,11.83
2023-05-02T01:27:10.403Z,11.87
2023-05-02T01:28:10.390Z,11.83
2023-05-02T01:29:10.381Z,11.86
2023-05-02T01:30:10.377Z,11.95
2023-05-02T01:31:10.433Z,11.90
2023-05-02T01:32:10.356Z,11.94
2023-05-02T01:33:10.407Z,12.03
2023-05-02T01:34:10.377Z,12.02
2023-05-02T01:35:10.388Z,12.02
2023-05-02T01:36:10.331Z,12.02
2023-05-02T01:37:10.360Z,12.04
2023-05-02T01:38:10.319Z,12.09
2023-05-02T01:39:10.311Z,12.12
2023-05-02T01:40:10.340Z,12.02
2023-05-02T01:41:10.303Z,12.07
2023-05-02T01:42:10.317Z,12.04
2023-05-02T01:43:10.296Z,12.02
2023-05-02T01:44:10.278Z,12.04
2023-05-02T01:45:10.286Z,11.99
2023-05-02T01:46:10.282Z,12.00
2023-05-02T01:47:10.330Z,11.86
2023-05-02T01:48:10.335Z,11.87
2023-05-02T01:49:10.244Z,11.91
2023-05-02T01:50:10.239Z,11.99
2023-05-02T01:51:10.228Z,11.88
2023-05-02T01:52:10.217Z,11.88
2023-05-02T01:53:10.213Z,11.97
2023-05-02T01:54:10.227Z,12.03
2023-05-02T01:55:10.208Z,11.94
2023-05-02T01:56:10.191Z,12.04
2023-05-02T01:57:10.185Z,12.03
2023-05-02T01:58:10.183Z,12.00
2023-05-02T01:59:10.163Z,12.13
2023-05-02T02:00:10.161Z,11.99
2023-05-02T02:01:10.243Z,12.04
2023-05-02T02:02:10.171Z,12.00
2023-05-02T02:03:10.186Z,12.03
2023-05-02T02:04:10.299Z,12.04
2023-05-02T02:05:10.129Z,12.03
2023-05-02T02:06:10.158Z,12.04
2023-05-02T02:07:10.117Z,12.04
2023-05-02T02:08:10.116Z,12.02
2023-05-02T02:09:10.136Z,11.88
2023-05-02T02:10:10.105Z,12.03
2023-05-02T02:11:10.079Z,12.03
2023-05-02T02:12:10.075Z,11.91
2023-05-02T02:13:10.073Z,11.95
2023-05-02T02:14:10.059Z,11.97
2023-05-02T02:15:10.055Z,12.02
2023-05-02T02:16:10.103Z,11.88
2023-05-02T02:17:10.116Z,11.95
2023-05-02T02:18:10.057Z,11.86
2023-05-02T02:19:10.028Z,11.86
2023-05-02T02:20:10.020Z,11.84
2023-05-02T02:21:10.013Z,11.87
2023-05-02T02:22:10.001Z,11.81
2023-05-02T02:23:10.126Z,11.87
2023-05-02T02:24:09.989Z,11.80
2023-05-02T02:25:09.991Z,11.73
2023-05-02T02:26:09.974Z,11.81
2023-05-02T02:27:09.969Z,11.95
2023-05-02T02:28:09.959Z,11.88
2023-05-02T02:29:09.949Z,11.78
2023-05-02T02:30:09.958Z,11.73
2023-05-02T02:31:09.969Z,11.80
2023-05-02T02:32:09.951Z,11.70
2023-05-02T02:33:10.048Z,11.80
2023-05-02T02:34:09.919Z,11.69
2023-05-02T02:35:09.900Z,11.78
2023-05-02T02:36:09.895Z,11.72
2023-05-02T02:37:09.902Z,11.75
2023-05-02T02:38:09.885Z,11.77
2023-05-02T02:39:09.884Z,11.68
2023-05-02T02:40:09.864Z,11.63
2023-05-02T02:41:09.882Z,11.63
2023-05-02T02:42:09.848Z,11.68
2023-05-02T02:43:09.864Z,11.69
2023-05-02T02:44:11.048Z,11.65
2023-05-02T02:45:09.829Z,11.68
2023-05-02T02:46:09.867Z,11.65
2023-05-02T02:47:09.810Z,11.57
2023-05-02T02:48:09.891Z,11.54
2023-05-02T02:49:09.792Z,11.52
2023-05-02T02:50:09.797Z,11.55
2023-05-02T02:51:09.779Z,11.51
2023-05-02T02:52:09.765Z,11.50
2023-05-02T02:53:09.775Z,11.44
2023-05-02T02:54:22.912Z,11.43
2023-05-02T02:55:09.752Z,11.35
2023-05-02T02:56:09.749Z,11.35
2023-05-02T02:57:09.729Z,11.23
2023-05-02T02:58:09.727Z,11.35
2023-05-02T02:59:09.713Z,11.37
2023-05-02T03:00:09.715Z,11.30
2023-05-02T03:01:09.730Z,11.26
2023-05-02T03:02:09.787Z,11.30
2023-05-02T03:03:09.744Z,11.26
2023-05-02T03:04:09.697Z,11.23
2023-05-02T03:05:09.698Z,11.32
2023-05-02T03:06:09.685Z,11.25
2023-05-02T03:07:09.670Z,11.22
2023-05-02T03:08:09.646Z,11.15
2023-05-02T03:09:09.673Z,11.15
2023-05-02T03:10:09.639Z,11.18
2023-05-02T03:11:09.772Z,11.14
2023-05-02T03:12:09.623Z,11.22
2023-05-02T03:13:09.609Z,11.14
2023-05-02T03:14:09.600Z,11.14
2023-05-02T03:15:09.589Z,11.08
2023-05-02T03:16:09.654Z,11.07
2023-05-02T03:17:09.572Z,11.10
2023-05-02T03:18:09.605Z,11.00
2023-05-02T03:19:09.584Z,11.05
2023-05-02T03:20:09.556Z,10.92
2023-05-02T03:21:09.550Z,10.96
2023-05-02T03:22:09.558Z,10.93
2023-05-02T03:23:09.518Z,10.96
2023-05-02T03:24:09.524Z,10.93
2023-05-02T03:25:09.598Z,10.90
2023-05-02T03:26:09.510Z,10.82
2023-05-02T03:27:09.526Z,10.87
2023-05-02T03:28:09.502Z,10.89
2023-05-02T03:29:09.496Z,10.86
2023-05-02T03:30:09.471Z,10.82
2023-05-02T03:31:09.535Z,10.87
2023-05-02T03:32:09.585Z,10.76
2023-05-02T03:33:09.475Z,10.74
2023-05-02T03:34:09.450Z,10.74
2023-05-02T03:35:09.427Z,10.86
2023-05-02T03:36:09.412Z,10.78
2023-05-02T03:37:09.407Z,10.79
2023-05-02T03:38:09.403Z,10.78
2023-05-02T03:39:09.422Z,10.72
2023-05-02T03:40:09.404Z,10.72
2023-05-02T03:41:09.384Z,10.59
2023-05-02T03:42:09.378Z,10.68
2023-05-02T03:43:09.356Z,10.68
2023-05-02T03:44:09.350Z,10.68
2023-05-02T03:45:09.355Z,10.69
2023-05-02T03:46:09.346Z,10.67
2023-05-02T03:47:09.406Z,10.69
2023-05-02T03:48:09.364Z,10.69
2023-05-02T03:49:09.315Z,10.69
2023-05-02T03:50:09.326Z,10.61
2023-05-02T03:51:09.340Z,10.60
2023-05-02T03:52:09.310Z,10.63
2023-05-02T03:53:09.276Z,10.59
2023-05-02T03:54:09.280Z,10.60
2023-05-02T03:55:09.267Z,10.64
2023-05-02T03:56:09.257Z,10.54
2023-05-02T03:57:09.248Z,10.53
2023-05-02T03:58:09.243Z,10.57
2023-05-02T03:59:09.238Z,10.59
2023-05-02T04:00:09.227Z,10.56
2023-05-02T04:01:09.224Z,10.59
2023-05-02T04:02:09.234Z,10.56
2023-05-02T04:03:09.294Z,10.48
2023-05-02T04:04:09.261Z,10.53
2023-05-02T04:05:09.194Z,10.46
2023-05-02T04:06:09.309Z,10.40
2023-05-02T04:07:09.171Z,10.48
2023-05-02T04:08:09.178Z,10.46
2023-05-02T04:09:09.151Z,10.41
2023-05-02T04:10:09.145Z,10.35
2023-05-02T04:11:09.153Z,10.41
2023-05-02T04:12:09.145Z,10.48
2023-05-02T04:13:09.122Z,10.42
2023-05-02T04:14:09.117Z,10.44
2023-05-02T04:15:09.109Z,10.57
2023-05-02T04:16:09.097Z,10.64
2023-05-02T04:18:09.182Z,10.69
2023-05-02T04:19:09.085Z,10.71
2023-05-02T04:20:09.158Z,10.72
2023-05-02T04:21:09.065Z,10.67
2023-05-02T04:22:09.050Z,10.72
2023-05-02T04:23:09.057Z,10.78
2023-05-02T04:24:09.027Z,10.74
2023-05-02T04:25:09.020Z,10.89
2023-05-02T04:26:09.016Z,10.86
2023-05-02T04:27:09.008Z,10.93
2023-05-02T04:28:09.016Z,10.94
2023-05-02T04:29:09.002Z,10.94
2023-05-02T04:30:08.984Z,10.96
2023-05-02T04:31:09.068Z,10.99
2023-05-02T04:32:08.970Z,10.97
2023-05-02T04:33:09.020Z,11.10
2023-05-02T04:34:08.951Z,11.17
2023-05-02T04:35:08.956Z,11.15
2023-05-02T04:36:08.934Z,11.19
2023-05-02T04:37:08.926Z,11.30
2023-05-02T04:38:08.923Z,11.32
2023-05-02T04:39:08.938Z,11.47
2023-05-02T04:40:08.915Z,11.57
2023-05-02T04:41:09.782Z,11.48
2023-05-02T04:42:08.945Z,11.65
2023-05-02T04:43:08.875Z,11.66
2023-05-02T04:44:08.868Z,11.77
2023-05-02T04:45:08.864Z,11.83
2023-05-02T04:46:08.892Z,11.78
2023-05-02T04:47:08.854Z,11.95
2023-05-02T04:48:08.912Z,11.88
2023-05-02T04:49:08.828Z,12.07
2023-05-02T04:50:08.822Z,12.28
2023-05-02T04:51:08.890Z,12.32
2023-05-02T04:52:08.878Z,12.39
2023-05-02T04:53:08.816Z,12.54
2023-05-02T04:54:08.793Z,12.58
2023-05-02T04:55:08.796Z,12.70
2023-05-02T04:56:08.777Z,12.76
2023-05-02T04:57:08.768Z,12.95
2023-05-02T04:58:08.764Z,12.91
2023-05-02T04:59:08.754Z,12.94
2023-05-02T05:00:08.745Z,13.12
2023-05-02T05:01:08.823Z,13.11
2023-05-02T05:02:08.934Z,13.05
2023-05-02T05:03:08.836Z,12.94
2023-05-02T05:04:08.851Z,12.67
2023-05-02T05:05:08.732Z,12.70
2023-05-02T05:06:08.713Z,12.68
2023-05-02T05:07:08.694Z,12.68
2023-05-02T05:08:08.706Z,12.78
2023-05-02T05:09:08.703Z,12.85
2023-05-02T05:10:08.702Z,12.94
2023-05-02T05:11:08.672Z,13.16
2023-05-02T05:12:08.660Z,13.46
2023-05-02T05:13:08.659Z,13.68
2023-05-02T05:14:08.653Z,13.81
2023-05-02T05:15:08.675Z,13.79
2023-05-02T05:16:08.653Z,13.79
2023-05-02T05:17:08.621Z,13.70
2023-05-02T05:18:08.674Z,13.56
2023-05-02T05:19:08.617Z,13.44
2023-05-02T05:20:09.552Z,13.37
2023-05-02T05:21:08.604Z,13.53
2023-05-02T05:22:08.596Z,14.03
2023-05-02T05:23:08.580Z,14.25
2023-05-02T05:24:08.582Z,14.66
2023-05-02T05:25:08.566Z,14.97
2023-05-02T05:26:08.558Z,15.22
2023-05-02T05:27:08.550Z,15.31
2023-05-02T05:28:08.557Z,15.55
2023-05-02T05:29:08.533Z,15.77
2023-05-02T05:30:08.548Z,15.54
2023-05-02T05:31:08.578Z,15.37
2023-05-02T05:32:08.564Z,15.07
2023-05-02T05:33:08.538Z,15.00
2023-05-02T05:34:08.608Z,15.22
2023-05-02T05:35:08.510Z,15.51
2023-05-02T05:36:08.501Z,15.65
2023-05-02T05:37:08.516Z,16.13
2023-05-02T05:38:08.478Z,16.43
2023-05-02T05:39:08.485Z,16.39
2023-05-02T05:40:08.464Z,16.53
2023-05-02T05:41:08.460Z,16.75
2023-05-02T05:42:08.451Z,16.97
2023-05-02T05:43:08.448Z,16.99
2023-05-02T05:44:08.436Z,17.12
2023-05-02T05:45:08.435Z,17.30
2023-05-02T05:46:08.433Z,17.48
2023-05-02T05:47:08.472Z,17.87
2023-05-02T05:48:08.504Z,18.00
2023-05-02T05:49:08.413Z,17.82
2023-05-02T05:50:08.408Z,17.71
2023-05-02T05:51:08.409Z,17.92
2023-05-02T05:52:08.401Z,17.85
2023-05-02T05:53:08.403Z,17.30
2023-05-02T05:54:08.383Z,17.45
2023-05-02T05:55:08.393Z,17.68
2023-05-02T05:56:08.374Z,17.67
2023-05-02T05:57:08.369Z,17.60
2023-05-02T05:58:08.362Z,17.78
2023-05-02T05:59:08.360Z,17.97
2023-05-02T06:00:08.460Z,17.65
2023-05-02T06:01:08.353Z,17.64
2023-05-02T06:02:08.389Z,17.87
2023-05-02T06:03:09.952Z,17.95
2023-05-02T06:04:08.411Z,18.26
2023-05-02T06:05:08.473Z,18.41
2023-05-02T06:06:08.355Z,18.40
2023-05-02T06:07:08.320Z,17.98
2023-05-02T06:08:08.324Z,17.79
2023-05-02T06:09:08.318Z,17.78
2023-05-02T06:10:08.307Z,17.72
2023-05-02T06:11:08.330Z,17.83
2023-05-02T06:12:08.296Z,17.49
2023-05-02T06:13:08.296Z,16.89
2023-05-02T06:14:08.289Z,16.50
2023-05-02T06:15:08.287Z,16.51
2023-05-02T06:16:08.366Z,16.71
2023-05-02T06:17:08.279Z,16.65
2023-05-02T06:18:08.314Z,16.76
2023-05-02T06:19:08.283Z,16.79
2023-05-02T06:20:08.277Z,16.69
2023-05-02T06:21:08.263Z,16.79
2023-05-02T06:22:08.256Z,16.93
2023-05-02T06:23:08.250Z,17.04
2023-05-02T06:24:08.248Z,17.16
2023-05-02T06:25:08.239Z,17.30
2023-05-02T06:26:08.240Z,17.51
2023-05-02T06:27:08.254Z,17.54
2023-05-02T06:28:08.237Z,17.85
2023-05-02T06:29:08.223Z,18.16
2023-05-02T06:30:08.241Z,18.28
2023-05-02T06:31:08.250Z,18.26
2023-05-02T06:32:08.344Z,18.55
2023-05-02T06:33:08.264Z,18.66
2023-05-02T06:34:08.206Z,18.55
2023-05-02T06:35:08.197Z,18.22
2023-05-02T06:36:08.192Z,18.18
2023-05-02T06:37:08.196Z,17.71
2023-05-02T06:38:08.185Z,17.27
2023-05-02T06:39:08.190Z,17.14
2023-05-02T06:40:08.178Z,16.89
2023-05-02T06:41:08.172Z,16.83
2023-05-02T06:42:08.172Z,16.71
2023-05-02T06:43:08.165Z,16.54
2023-05-02T06:44:08.162Z,16.75
2023-05-02T06:45:08.169Z,16.86
2023-05-02T06:46:08.169Z,17.11
2023-05-02T06:47:08.201Z,17.63
2023-05-02T06:48:08.225Z,17.95
2023-05-02T06:49:08.154Z,18.05
2023-05-02T06:50:08.140Z,17.89
2023-05-02T06:51:08.186Z,17.72
2023-05-02T06:52:08.129Z,17.97
2023-05-02T06:53:08.128Z,18.37
2023-05-02T06:54:08.127Z,18.71
2023-05-02T06:55:08.124Z,18.68
2023-05-02T06:56:08.126Z,18.41
2023-05-02T06:57:08.118Z,18.66
2023-05-02T06:58:08.114Z,18.73
2023-05-02T06:59:08.106Z,18.81
2023-05-02T07:00:08.109Z,18.86
2023-05-02T07:01:08.170Z,18.96
2023-05-02T07:02:08.095Z,19.30
2023-05-02T07:03:08.185Z,19.31
2023-05-02T07:04:08.130Z,19.26
2023-05-02T07:05:08.088Z,19.47
2023-05-02T07:06:08.104Z,19.40
2023-05-02T07:07:08.080Z,18.95
2023-05-02T07:08:08.093Z,18.66
2023-05-02T07:09:08.092Z,18.52
2023-05-02T07:10:08.071Z,18.34
2023-05-02T07:11:08.076Z,18.77
2023-05-02T07:12:08.099Z,18.70
2023-05-02T07:13:08.057Z,18.16
2023-05-02T07:14:08.058Z,18.05
2023-05-02T07:15:08.067Z,18.10
2023-05-02T07:16:08.105Z,18.13
2023-05-02T07:17:08.143Z,17.82
2023-05-02T07:18:08.129Z,17.26
2023-05-02T07:19:08.043Z,16.91
2023-05-02T07:20:08.046Z,16.86
2023-05-02T07:21:08.037Z,16.99
2023-05-02T07:22:08.034Z,16.72
2023-05-02T07:23:08.028Z,16.50
2023-05-02T07:24:08.024Z,16.69
2023-05-02T07:25:08.018Z,16.79
2023-05-02T07:26:08.029Z,16.72
2023-05-02T07:27:08.011Z,17.29
2023-05-02T07:28:08.017Z,17.64
2023-05-02T07:29:08.007Z,18.11
2023-05-02T07:30:08.009Z,18.07
2023-05-02T07:31:08.019Z,17.94
2023-05-02T07:32:08.048Z,17.64
2023-05-02T07:33:08.180Z,17.30
2023-05-02T07:34:08.000Z,17.14
2023-05-02T07:35:07.992Z,17.26
2023-05-02T07:36:07.991Z,16.99
2023-05-02T07:37:07.983Z,16.72
2023-05-02T07:38:07.993Z,16.79
2023-05-02T07:39:07.984Z,16.87
2023-05-02T07:40:07.980Z,16.57
2023-05-02T07:41:07.972Z,16.43
2023-05-02T07:42:07.975Z,17.11
2023-05-02T07:43:09.905Z,16.96
2023-05-02T07:44:07.961Z,17.45
2023-05-02T07:45:07.976Z,17.57
2023-05-02T07:46:08.010Z,17.29
2023-05-02T07:47:08.014Z,16.97
2023-05-02T07:48:07.985Z,16.83
2023-05-02T07:49:07.945Z,16.47
2023-05-02T07:50:07.950Z,16.05
2023-05-02T07:51:07.950Z,15.97
2023-05-02T07:52:07.931Z,15.94
2023-05-02T07:53:07.932Z,15.76
2023-05-02T07:54:07.923Z,15.68
2023-05-02T07:55:07.928Z,15.70
2023-05-02T07:56:07.929Z,15.76
2023-05-02T07:57:07.918Z,15.77
2023-05-02T07:58:07.915Z,15.95
2023-05-02T07:59:07.902Z,15.92
2023-05-02T08:00:07.909Z,15.72
2023-05-02T08:01:07.896Z,16.05
2023-05-02T08:02:07.921Z,16.12
2023-05-02T08:03:08.054Z,16.04
2023-05-02T08:04:08.090Z,16.12
2023-05-02T08:05:08.075Z,15.95
2023-05-02T08:06:07.922Z,16.10
2023-05-02T08:07:07.867Z,16.04
2023-05-02T08:08:07.869Z,15.98
2023-05-02T08:09:07.866Z,15.90
2023-05-02T08:10:07.896Z,15.77
2023-05-02T08:11:07.863Z,15.75
2023-05-02T08:12:07.853Z,15.67
2023-05-02T08:13:07.859Z,15.59
2023-05-02T08:14:07.841Z,15.55
2023-05-02T08:15:07.839Z,15.42
2023-05-02T08:16:07.893Z,15.15
2023-05-02T08:17:07.824Z,14.91
2023-05-02T08:18:07.898Z,14.72
2023-05-02T08:19:07.813Z,14.65
2023-05-02T08:20:07.808Z,14.51
2023-05-02T08:21:07.810Z,14.59
2023-05-02T08:22:07.811Z,14.51
2023-05-02T08:23:07.821Z,14.41
2023-05-02T08:24:07.793Z,14.33
2023-05-02T08:25:07.791Z,14.17
2023-05-02T08:26:07.789Z,14.22
2023-05-02T08:27:07.773Z,14.10
2023-05-02T08:28:07.767Z,14.14
2023-05-02T08:29:07.781Z,14.05
2023-05-02T08:30:08.012Z,14.03
2023-05-02T08:31:07.827Z,14.04
2023-05-02T08:32:07.993Z,13.99
2023-05-02T08:33:07.770Z,14.10
2023-05-02T08:34:07.739Z,14.07
2023-05-02T08:35:07.740Z,14.04
2023-05-02T08:36:07.723Z,14.04
2023-05-02T08:37:07.719Z,14.00
2023-05-02T08:38:07.718Z,13.99
2023-05-02T08:39:07.705Z,13.99
2023-05-02T08:40:07.716Z,14.10
2023-05-02T08:41:07.725Z,14.04
2023-05-02T08:42:07.706Z,14.05
2023-05-02T08:43:07.680Z,14.03
2023-05-02T08:44:07.693Z,14.00
2023-05-02T08:45:07.676Z,14.00
2023-05-02T08:46:07.664Z,13.97
2023-05-02T08:47:07.708Z,14.04
2023-05-02T08:48:07.745Z,14.07
2023-05-02T08:49:07.647Z,14.08
2023-05-02T08:50:07.662Z,14.08
2023-05-02T08:51:07.629Z,14.17
2023-05-02T08:52:07.623Z,14.07
2023-05-02T08:53:07.621Z,14.22
2023-05-02T08:54:07.624Z,14.18
2023-05-02T08:55:07.617Z,14.29
2023-05-02T08:56:07.597Z,14.30
2023-05-02T08:57:07.590Z,14.51
2023-05-02T08:58:07.584Z,14.41
2023-05-02T08:59:07.577Z,14.51
2023-05-02T09:00:07.575Z,14.54
2023-05-02T09:01:07.622Z,14.47
2023-05-02T09:02:07.561Z,14.44
2023-05-02T09:03:07.634Z,14.41
2023-05-02T09:04:07.564Z,14.28
2023-05-02T09:05:07.543Z,14.23
2023-05-02T09:06:07.776Z,14.17
2023-05-02T09:07:07.529Z,14.11
2023-05-02T09:08:07.524Z,14.03
2023-05-02T09:09:07.539Z,13.89
2023-05-02T09:10:07.509Z,13.85
2023-05-02T09:11:07.511Z,13.86
2023-05-02T09:12:07.571Z,13.93
2023-05-02T09:13:07.508Z,13.78
2023-05-02T09:14:07.483Z,13.86
2023-05-02T09:15:07.488Z,13.79
2023-05-02T09:16:07.518Z,13.85
2023-05-02T09:17:07.559Z,13.83
2023-05-02T09:18:07.471Z,13.85
2023-05-02T09:19:07.454Z,13.85
2023-05-02T09:20:07.446Z,13.93
2023-05-02T09:21:07.434Z,13.92
2023-05-02T09:22:07.434Z,13.97
2023-05-02T09:23:07.426Z,14.04
2023-05-02T09:24:07.421Z,14.07
2023-05-02T09:25:07.416Z,14.14
2023-05-02T09:26:07.411Z,14.26
2023-05-02T09:27:07.407Z,14.33
2023-05-02T09:28:07.398Z,14.43
2023-05-02T09:29:07.384Z,14.40
2023-05-02T09:30:07.382Z,14.33
2023-05-02T09:31:07.415Z,14.15
2023-05-02T09:32:07.458Z,14.26
2023-05-02T09:33:07.413Z,14.15
2023-05-02T09:34:07.366Z,14.26
2023-05-02T09:35:07.353Z,14.18
2023-05-02T09:36:07.350Z,14.18
2023-05-02T09:37:07.350Z,14.29
2023-05-02T09:38:07.337Z,14.36
2023-05-02T09:39:07.325Z,14.32
2023-05-02T09:40:07.324Z,14.37
2023-05-02T09:41:07.320Z,14.47
2023-05-02T09:42:07.323Z,14.55
2023-05-02T09:43:07.304Z,14.59
2023-05-02T09:44:07.306Z,14.65
2023-05-02T09:45:07.288Z,14.50
2023-05-02T09:46:07.313Z,14.53
2023-05-02T09:47:07.278Z,14.55
2023-05-02T09:48:07.337Z,14.65
2023-05-02T09:49:07.264Z,14.78
2023-05-02T09:50:07.260Z,14.81
2023-05-02T09:51:07.255Z,14.85
2023-05-02T09:52:07.247Z,14.78
2023-05-02T09:53:07.260Z,14.77
2023-05-02T09:54:07.240Z,14.59
2023-05-02T09:55:07.360Z,14.48
2023-05-02T09:56:07.217Z,14.54
2023-05-02T09:57:07.359Z,14.40
2023-05-02T09:58:07.206Z,14.29
2023-05-02T09:59:07.204Z,14.22
2023-05-02T10:00:07.204Z,14.12
2023-05-02T10:01:07.237Z,13.97
2023-05-02T10:02:07.191Z,14.07
2023-05-02T10:03:07.247Z,14.03
2023-05-02T10:04:07.203Z,14.26
2023-05-02T10:05:07.172Z,14.47
2023-05-02T10:06:07.231Z,14.54
2023-05-02T10:07:07.161Z,14.78
2023-05-02T10:08:07.153Z,14.79
2023-05-02T10:09:07.146Z,14.69
2023-05-02T10:10:07.141Z,14.60
2023-05-02T10:11:07.140Z,14.54
2023-05-02T10:12:07.129Z,14.59
2023-05-02T10:13:07.127Z,14.51
2023-05-02T10:14:07.117Z,14.53
2023-05-02T10:15:07.107Z,14.62
2023-05-02T10:16:07.128Z,14.58
2023-05-02T10:17:07.105Z,14.53
2023-05-02T10:18:07.124Z,14.60
2023-05-02T10:19:07.094Z,14.72
2023-05-02T10:20:07.094Z,14.60
2023-05-02T10:21:07.085Z,14.45
2023-05-02T10:22:07.069Z,14.45
2023-05-02T10:23:07.070Z,14.37
2023-05-02T10:24:07.062Z,14.32
2023-05-02T10:25:07.056Z,14.17
2023-05-02T10:26:07.047Z,13.99
2023-05-02T10:27:07.037Z,13.90
2023-05-02T10:28:07.035Z,13.75
2023-05-02T10:29:07.036Z,13.79
2023-05-02T10:30:07.024Z,13.53
2023-05-02T10:31:07.046Z,13.42
2023-05-02T10:32:07.025Z,13.38
2023-05-02T10:33:07.041Z,13.23
2023-05-02T10:34:06.997Z,13.12
2023-05-02T10:35:07.114Z,12.95
2023-05-02T10:36:06.995Z,12.83
2023-05-02T10:37:06.979Z,12.80
2023-05-02T10:38:06.979Z,12.70
2023-05-02T10:39:06.975Z,12.57
2023-05-02T10:40:06.957Z,12.37
2023-05-02T10:41:06.952Z,12.35
2023-05-02T10:42:06.959Z,12.17
2023-05-02T10:43:06.940Z,12.03
2023-05-02T10:44:06.939Z,11.99
2023-05-02T10:45:06.934Z,11.86
2023-05-02T10:46:06.940Z,11.91
2023-05-02T10:47:06.945Z,12.00
2023-05-02T10:48:06.954Z,11.87
2023-05-02T10:49:06.914Z,11.87
2023-05-02T10:50:06.898Z,11.94
2023-05-02T10:51:06.886Z,11.90
2023-05-02T10:52:06.877Z,11.87
2023-05-02T10:53:06.877Z,11.83
2023-05-02T10:54:06.858Z,11.75
2023-05-02T10:55:06.858Z,11.72
2023-05-02T10:56:06.848Z,11.62
2023-05-02T10:57:06.857Z,11.62
2023-05-02T10:58:06.839Z,11.75
2023-05-02T10:59:06.824Z,11.75
2023-05-02T11:00:06.838Z,11.83
2023-05-02T11:01:06.837Z,11.72
2023-05-02T11:02:07.315Z,11.75
2023-05-02T11:03:06.938Z,11.73
2023-05-02T11:04:06.806Z,11.78
2023-05-02T11:05:06.792Z,11.73
2023-05-02T11:06:06.842Z,11.83
2023-05-02T11:07:06.782Z,11.99
2023-05-02T11:08:06.760Z,12.06
2023-05-02T11:09:06.751Z,12.04
2023-05-02T11:10:06.749Z,12.13
2023-05-02T11:11:06.815Z,12.21
2023-05-02T11:12:06.730Z,12.43
2023-05-02T11:13:06.738Z,12.49
2023-05-02T11:14:06.712Z,12.54
2023-05-02T11:15:06.724Z,12.61
2023-05-02T11:16:06.719Z,12.60
2023-05-02T11:17:06.711Z,12.57
2023-05-02T11:18:06.766Z,12.49
2023-05-02T11:19:06.676Z,12.73
2023-05-02T11:20:06.680Z,12.54
2023-05-02T11:21:06.665Z,12.50
2023-05-02T11:22:06.659Z,12.50
2023-05-02T11:23:06.649Z,12.67
2023-05-02T11:24:06.644Z,12.97
2023-05-02T11:25:06.641Z,13.08
2023-05-02T11:26:06.631Z,13.18
2023-05-02T11:27:06.626Z,13.20
2023-05-02T11:28:06.614Z,13.28
2023-05-02T11:29:06.614Z,13.25
2023-05-02T11:30:06.612Z,13.25
2023-05-02T11:31:06.605Z,13.20
2023-05-02T11:32:06.604Z,13.18
2023-05-02T11:33:06.622Z,13.20
2023-05-02T11:34:06.574Z,13.28
2023-05-02T11:35:06.570Z,13.44
2023-05-02T11:36:06.560Z,13.33
2023-05-02T11:37:06.562Z,13.18
2023-05-02T11:38:06.550Z,13.09
2023-05-02T11:39:06.539Z,13.04
2023-05-02T11:40:06.532Z,13.15
2023-05-02T11:41:06.534Z,13.05
2023-05-02T11:42:06.546Z,13.08
2023-05-02T11:43:06.512Z,13.08
2023-05-02T11:44:06.512Z,13.15
2023-05-02T11:45:06.518Z,13.18
2023-05-02T11:46:06.512Z,13.25
2023-05-02T11:47:06.483Z,13.04
2023-05-02T11:48:06.598Z,13.08
2023-05-02T11:49:08.302Z,13.00
2023-05-02T11:50:06.471Z,12.93
2023-05-02T11:51:06.484Z,12.93
2023-05-02T11:52:06.457Z,12.87
2023-05-02T11:53:06.449Z,12.95
2023-05-02T11:54:06.438Z,13.11
2023-05-02T11:55:06.452Z,13.20
2023-05-02T11:56:06.426Z,13.20
2023-05-02T11:57:06.429Z,13.25
2023-05-02T11:58:06.410Z,13.16
2023-05-02T11:59:06.424Z,13.15
2023-05-02T12:00:06.401Z,13.16
2023-05-02T12:01:06.411Z,13.20
2023-05-02T12:02:06.401Z,13.33
2023-05-02T12:03:06.486Z,13.35
2023-05-02T12:04:06.375Z,13.35
2023-05-02T12:05:06.419Z,13.25
2023-05-02T12:06:06.466Z,13.09
2023-05-02T12:07:06.458Z,13.18
2023-05-02T12:08:06.345Z,13.19
2023-05-02T12:09:06.340Z,13.35
2023-05-02T12:10:06.342Z,13.52
2023-05-02T12:11:06.334Z,13.70
2023-05-02T12:12:06.334Z,13.89
2023-05-02T12:13:06.327Z,13.87
2023-05-02T12:14:06.343Z,13.78
2023-05-02T12:15:06.309Z,13.78
2023-05-02T12:16:06.329Z,13.67
2023-05-02T12:17:06.321Z,13.53
2023-05-02T12:18:06.353Z,13.49
2023-05-02T12:19:06.278Z,13.20
2023-05-02T12:20:06.282Z,13.22
2023-05-02T12:21:06.264Z,13.01
2023-05-02T12:22:06.261Z,13.15
2023-05-02T12:23:06.254Z,13.19
2023-05-02T12:24:06.252Z,12.97
2023-05-02T12:25:06.245Z,12.94
2023-05-02T12:26:06.231Z,12.85
2023-05-02T12:27:06.225Z,12.95
2023-05-02T12:28:06.219Z,12.93
2023-05-02T12:29:06.215Z,12.83
2023-05-02T12:30:06.215Z,12.91
2023-05-02T12:31:06.216Z,13.16
2023-05-02T12:32:06.185Z,13.08
2023-05-02T12:33:06.194Z,13.01
2023-05-02T12:34:06.178Z,13.03
2023-05-02T12:35:06.174Z,13.03
2023-05-02T12:36:06.165Z,13.11
2023-05-02T12:37:06.194Z,13.22
2023-05-02T12:38:06.187Z,13.19
2023-05-02T12:39:06.168Z,13.20
2023-05-02T12:40:06.142Z,13.22
2023-05-02T12:41:06.130Z,13.23
2023-05-02T12:42:06.128Z,13.37
2023-05-02T12:43:06.126Z,13.41
2023-05-02T12:44:06.133Z,13.47
2023-05-02T12:45:06.098Z,13.68
2023-05-02T12:46:06.097Z,13.75
2023-05-02T12:47:06.105Z,13.81
2023-05-02T12:48:06.121Z,14.03
2023-05-02T12:49:06.205Z,14.03
2023-05-02T12:50:06.073Z,14.12
2023-05-02T12:51:06.073Z,14.05
2023-05-02T12:52:06.056Z,14.04
2023-05-02T12:53:06.046Z,14.04